LIFTER1 EDFZ-EDDR
Flight info
| Callsign | LIFTER1 |
|---|---|
| Flight time | 0h 24m |
| Altitude | 8500 |
| Route | N0280VFR DCT ZWN/N0240A050 IFR |
| Aircraft | A400/H-SDE2E3FGHIJ4J5M1RWXY/LB1D1 |
Departure
| Time | 2026-04-25 08:50 |
|---|---|
| Airport | Mainz-Finthen Airfield (EDFZ) |
Arrival
| Time | 2026-04-25 09:14 |
|---|---|
| Airport | Saarbrücken Airport (EDDR) |
| Time | Latitude | Longitude | Altitude | Speed | Heading |
|---|---|---|---|---|---|
| 2026-04-25 08:42 | 49.97109 | 8.14843 | 765 ft | 0 kts | 77° |
| 2026-04-25 08:48 | 49.97109 | 8.14844 | 765 ft | 2 kts | 77° |
| 2026-04-25 08:48 | 49.97120 | 8.14916 | 764 ft | 8 kts | 77° |
| 2026-04-25 08:48 | 49.97126 | 8.14960 | 758 ft | 8 kts | 77° |
| 2026-04-25 08:48 | 49.97125 | 8.15077 | 761 ft | 14 kts | 77° |
| 2026-04-25 08:49 | 49.97100 | 8.15212 | 755 ft | 12 kts | 141° |
| 2026-04-25 08:49 | 49.97069 | 8.15342 | 753 ft | 12 kts | 95° |
| 2026-04-25 08:49 | 49.97024 | 8.15367 | 755 ft | 7 kts | 227° |
| 2026-04-25 08:49 | 49.96951 | 8.15004 | 756 ft | 90 kts | 255° |
| 2026-04-25 08:50 | 49.96692 | 8.13579 | 1245 ft | 157 kts | 254° |
| 2026-04-25 08:50 | 49.96192 | 8.11962 | 2235 ft | 182 kts | 225° |
| 2026-04-25 08:50 | 49.94958 | 8.11194 | 3226 ft | 206 kts | 195° |
| 2026-04-25 08:50 | 49.93507 | 8.10452 | 4224 ft | 232 kts | 210° |
| 2026-04-25 08:51 | 49.92308 | 8.08659 | 5246 ft | 252 kts | 239° |
| 2026-04-25 08:51 | 49.91326 | 8.06306 | 6267 ft | 267 kts | 231° |
| 2026-04-25 08:51 | 49.89887 | 8.04421 | 7277 ft | 275 kts | 216° |
| 2026-04-25 08:51 | 49.88273 | 8.02780 | 8240 ft | 281 kts | 213° |
| 2026-04-25 08:52 | 49.86604 | 8.01148 | 8852 ft | 285 kts | 213° |
| 2026-04-25 08:52 | 49.84920 | 7.99518 | 8356 ft | 296 kts | 213° |
| 2026-04-25 08:52 | 49.83085 | 7.97742 | 6572 ft | 325 kts | 213° |
| 2026-04-25 08:52 | 49.81100 | 7.95816 | 4642 ft | 345 kts | 213° |
| 2026-04-25 08:53 | 49.79025 | 7.93802 | 2932 ft | 355 kts | 213° |
| 2026-04-25 08:53 | 49.77070 | 7.91905 | 3050 ft | 308 kts | 213° |
| 2026-04-25 08:53 | 49.75365 | 7.90248 | 3137 ft | 275 kts | 213° |
| 2026-04-25 08:53 | 49.73780 | 7.88713 | 2939 ft | 264 kts | 213° |
| 2026-04-25 08:54 | 49.72235 | 7.87213 | 2785 ft | 260 kts | 213° |
| 2026-04-25 08:54 | 49.70707 | 7.85723 | 2919 ft | 259 kts | 213° |
| 2026-04-25 08:54 | 49.69210 | 7.84257 | 3410 ft | 258 kts | 213° |
| 2026-04-25 08:54 | 49.67696 | 7.82772 | 4233 ft | 257 kts | 213° |
| 2026-04-25 08:55 | 49.66174 | 7.81277 | 5418 ft | 262 kts | 213° |
| 2026-04-25 08:55 | 49.64588 | 7.79786 | 6682 ft | 271 kts | 212° |
| 2026-04-25 08:55 | 49.62939 | 7.78273 | 7726 ft | 280 kts | 212° |
| 2026-04-25 08:55 | 49.61247 | 7.76724 | 8350 ft | 285 kts | 212° |
| 2026-04-25 08:56 | 49.59532 | 7.75155 | 8608 ft | 287 kts | 212° |
| 2026-04-25 08:56 | 49.57814 | 7.73582 | 8648 ft | 287 kts | 212° |
| 2026-04-25 08:56 | 49.56098 | 7.72010 | 8645 ft | 286 kts | 212° |
| 2026-04-25 08:56 | 49.54408 | 7.70462 | 8627 ft | 286 kts | 212° |
| 2026-04-25 08:57 | 49.52694 | 7.68891 | 8629 ft | 286 kts | 212° |
| 2026-04-25 08:57 | 49.50984 | 7.67325 | 8664 ft | 287 kts | 212° |
| 2026-04-25 08:57 | 49.49270 | 7.65756 | 8548 ft | 287 kts | 212° |
| 2026-04-25 08:57 | 49.47556 | 7.64189 | 8415 ft | 286 kts | 212° |
| 2026-04-25 08:58 | 49.45844 | 7.62625 | 8287 ft | 285 kts | 212° |
| 2026-04-25 08:58 | 49.44134 | 7.61064 | 8069 ft | 286 kts | 212° |
| 2026-04-25 08:58 | 49.42425 | 7.59506 | 7698 ft | 284 kts | 212° |
| 2026-04-25 08:58 | 49.40730 | 7.57961 | 7319 ft | 283 kts | 212° |
| 2026-04-25 08:59 | 49.39039 | 7.56421 | 6956 ft | 282 kts | 211° |
| 2026-04-25 08:59 | 49.37353 | 7.54887 | 6600 ft | 281 kts | 211° |
| 2026-04-25 08:59 | 49.35696 | 7.53381 | 6219 ft | 280 kts | 211° |
| 2026-04-25 08:59 | 49.34025 | 7.51864 | 5839 ft | 278 kts | 211° |
| 2026-04-25 09:00 | 49.32360 | 7.50354 | 5452 ft | 277 kts | 211° |
| 2026-04-25 09:00 | 49.30708 | 7.48855 | 5110 ft | 275 kts | 211° |
| 2026-04-25 09:00 | 49.29063 | 7.47366 | 5005 ft | 274 kts | 211° |
| 2026-04-25 09:00 | 49.27415 | 7.45873 | 4977 ft | 274 kts | 211° |
| 2026-04-25 09:01 | 49.25776 | 7.44388 | 4985 ft | 273 kts | 211° |
| 2026-04-25 09:01 | 49.24276 | 7.42631 | 4988 ft | 272 kts | 227° |
| 2026-04-25 09:01 | 49.23338 | 7.40147 | 4988 ft | 271 kts | 254° |
| 2026-04-25 09:01 | 49.23178 | 7.37378 | 4973 ft | 252 kts | 274° |
| 2026-04-25 09:02 | 49.23328 | 7.34782 | 4969 ft | 240 kts | 277° |
| 2026-04-25 09:02 | 49.23520 | 7.32287 | 4989 ft | 238 kts | 278° |
| 2026-04-25 09:02 | 49.23711 | 7.29781 | 4991 ft | 237 kts | 277° |
| 2026-04-25 09:02 | 49.23895 | 7.27273 | 4990 ft | 237 kts | 277° |
| 2026-04-25 09:03 | 49.24074 | 7.24770 | 4979 ft | 237 kts | 277° |
| 2026-04-25 09:03 | 49.24250 | 7.22259 | 4993 ft | 237 kts | 277° |
| 2026-04-25 09:03 | 49.24420 | 7.19751 | 4990 ft | 237 kts | 277° |
| 2026-04-25 09:03 | 49.24591 | 7.17241 | 4986 ft | 237 kts | 277° |
| 2026-04-25 09:04 | 49.24761 | 7.14731 | 4980 ft | 237 kts | 277° |
| 2026-04-25 09:04 | 49.24927 | 7.12270 | 4978 ft | 225 kts | 277° |
| 2026-04-25 09:04 | 49.25084 | 7.09929 | 4986 ft | 219 kts | 277° |
| 2026-04-25 09:04 | 49.25238 | 7.07622 | 4985 ft | 218 kts | 277° |
| 2026-04-25 09:05 | 49.25391 | 7.05322 | 4980 ft | 218 kts | 277° |
| 2026-04-25 09:05 | 49.25544 | 7.03019 | 4991 ft | 218 kts | 277° |
| 2026-04-25 09:05 | 49.25696 | 7.00721 | 4980 ft | 216 kts | 277° |
| 2026-04-25 09:05 | 49.25846 | 6.98440 | 4987 ft | 216 kts | 277° |
| 2026-04-25 09:06 | 49.25995 | 6.96188 | 4985 ft | 215 kts | 277° |
| 2026-04-25 09:06 | 49.26144 | 6.93919 | 4987 ft | 214 kts | 277° |
| 2026-04-25 09:06 | 49.26292 | 6.91651 | 4988 ft | 214 kts | 277° |
| 2026-04-25 09:06 | 49.26441 | 6.89371 | 4981 ft | 216 kts | 277° |
| 2026-04-25 09:07 | 49.26584 | 6.87153 | 4965 ft | 202 kts | 277° |
| 2026-04-25 09:07 | 49.26592 | 6.85042 | 4981 ft | 195 kts | 263° |
| 2026-04-25 09:07 | 49.26193 | 6.83125 | 4936 ft | 186 kts | 242° |
| 2026-04-25 09:07 | 49.25389 | 6.81621 | 4852 ft | 181 kts | 219° |
| 2026-04-25 09:08 | 49.24311 | 6.80707 | 4813 ft | 176 kts | 198° |
| 2026-04-25 09:08 | 49.23124 | 6.80442 | 4773 ft | 170 kts | 176° |
| 2026-04-25 09:08 | 49.21978 | 6.80808 | 4658 ft | 170 kts | 156° |
| 2026-04-25 09:08 | 49.20971 | 6.81758 | 4410 ft | 171 kts | 135° |
| 2026-04-25 09:09 | 49.20243 | 6.83179 | 4185 ft | 171 kts | 116° |
| 2026-04-25 09:09 | 49.19875 | 6.84894 | 3938 ft | 170 kts | 96° |
| 2026-04-25 09:09 | 49.19895 | 6.86694 | 3689 ft | 171 kts | 80° |
| 2026-04-25 09:09 | 49.20120 | 6.88446 | 3509 ft | 167 kts | 76° |
| 2026-04-25 09:10 | 49.20351 | 6.90116 | 3458 ft | 153 kts | 79° |
| 2026-04-25 09:10 | 49.20470 | 6.91612 | 3322 ft | 134 kts | 82° |
| 2026-04-25 09:10 | 49.20550 | 6.92983 | 3140 ft | 127 kts | 83° |
| 2026-04-25 09:10 | 49.20622 | 6.94316 | 2978 ft | 125 kts | 84° |
| 2026-04-25 09:11 | 49.20761 | 6.96949 | 2655 ft | 124 kts | 84° |
| 2026-04-25 09:11 | 49.20827 | 6.98260 | 2492 ft | 124 kts | 84° |
| 2026-04-25 09:11 | 49.20891 | 6.99567 | 2341 ft | 123 kts | 85° |
| 2026-04-25 09:12 | 49.20947 | 7.00876 | 2176 ft | 123 kts | 84° |
| 2026-04-25 09:12 | 49.21042 | 7.02185 | 2118 ft | 126 kts | 83° |
| 2026-04-25 09:12 | 49.21155 | 7.03493 | 1978 ft | 124 kts | 83° |
| 2026-04-25 09:12 | 49.21230 | 7.04798 | 1786 ft | 123 kts | 86° |
| 2026-04-25 09:13 | 49.21288 | 7.06097 | 1541 ft | 121 kts | 85° |
| 2026-04-25 09:13 | 49.21339 | 7.07367 | 1346 ft | 121 kts | 87° |
| 2026-04-25 09:13 | 49.21381 | 7.08644 | 1188 ft | 121 kts | 87° |
| 2026-04-25 09:13 | 49.21425 | 7.09924 | 1043 ft | 119 kts | 87° |
| 2026-04-25 09:14 | 49.21455 | 7.10912 | 1069 ft | 61 kts | 87° |
| 2026-04-25 09:14 | 49.21467 | 7.11331 | 1078 ft | 31 kts | 87° |
| 2026-04-25 09:14 | 49.21475 | 7.11638 | 1077 ft | 28 kts | 87° |
| 2026-04-25 09:14 | 49.21483 | 7.11930 | 1070 ft | 28 kts | 89° |
| 2026-04-25 09:15 | 49.21492 | 7.12198 | 1063 ft | 16 kts | 74° |
| 2026-04-25 09:15 | 49.21574 | 7.12229 | 1066 ft | 13 kts | 326° |
| 2026-04-25 09:15 | 49.21635 | 7.12125 | 1069 ft | 13 kts | 311° |
| 2026-04-25 09:15 | 49.21695 | 7.12018 | 1073 ft | 13 kts | 311° |
| 2026-04-25 09:16 | 49.21756 | 7.11909 | 1076 ft | 14 kts | 311° |
| 2026-04-25 09:16 | 49.21817 | 7.11781 | 1078 ft | 16 kts | 293° |
| 2026-04-25 09:16 | 49.21842 | 7.11611 | 1078 ft | 17 kts | 259° |
| 2026-04-25 09:16 | 49.21831 | 7.11501 | 1076 ft | 3 kts | 300° |
| 2026-04-25 09:17 | 49.21882 | 7.11463 | 1076 ft | 0 kts | 344° |